Terminal Aerodrome Forecast
Issued by NWS Wilmington, OH

Current Version | Previous Version | Graphics & Text | Print | Product List | Glossary On
Versions: 1 2 3 4 5 6 7 8 9 10 11 12 13 14 15 16 17 18
000
FTUS41 KILN 160541
TAFDAY
TAF
KDAY 160541Z 1606/1706 00000KT P6SM BKN080
     FM160900 00000KT 4SM BR SCT250
     FM161300 00000KT P6SM SCT250
     FM161400 16007KT P6SM BKN040
     FM162100 17007KT P6SM VCSH BKN050
     FM170300 16005KT P6SM SCT050 BKN150=

USA.gov is the U.S. government's official web portal to all federal, state and local government web resources and services.